Mount Holly, Vermont
Current Conditions -  °F | °C
As of 5:35 AM on Friday 24 Oct 2014 (Local Time) from KRUT Reporting Station
Overcast Overcast  
Wind Chill: 36°   Ceiling: 500
Heat Index: 41°   Visibility: 4mi
Dew Point: 39°   Wind: 8mph
Humidity: 93%   Direction: 320°NW
Pressure: 29.8"   Gusts: 16mph
Location:  43.45°N, 72.83°W
Report Text: KRUT 240935Z 32007G14KT 4SM OVC005 05/04 A2980 RMK AO1
Loading
Personal Weather Stations






























Interactive Weather Map
Tropical Storm Tracking
New forecast layout! Learn more

10-Day Weather Forecast

Advertisements
Track Severe Weather on mobile